Emley Moor, United Kingdom
Current Conditions -  °F | °C
As of 5:20 AM on Wednesday 26 Nov 2014 (Local Time) from EGNM Reporting Station
Light Rain Light Rain  
Wind Chill: 37°   Ceiling: 600
Heat Index: 41°   Visibility: 2.5mi
Dew Point: 41°   Wind: 6mph
Humidity: 100%   Direction: 40°NE
Pressure: 29.97"   Gusts: NA
Location:  53.62°N, 1.67°W
Report Text: EGNM 260520Z 04005KT 360V080 4000 -RA BKN006 BKN008 05/05 Q1015
Loading
Personal Weather Stations






























Interactive Weather Map New forecast layout! Learn more

10-Day Weather Forecast

Advertisements
Track Severe Weather on mobile